Time;durP1;ratioP1;P1;durP2;ratioP2;P2;SDS_P1;SDS_P2;PMS_P1;PMS_P2;Temp;Humidity;BMP_temperature;BMP_pressure;BME280_temperature;BME280_humidity;BME280_pressure;Samples;Min_cycle;Max_cycle;Signal;HPM_P1;HPM_P2
2021/10/30 00:00:13;;;;;;;11.52;5.80;;;12.70;99.90;;;11.38;82.48;100338.66;2568677;30;137125;-40
2021/10/30 00:02:42;;;;;;;9.52;5.50;;;12.80;99.90;;;11.33;83.11;100344.81;2568248;30;138111;-39
2021/10/30 00:05:12;;;;;;;8.98;5.38;;;12.70;99.90;;;11.34;82.55;100338.28;2565395;30;137716;-39
2021/10/30 00:07:42;;;;;;;7.82;4.68;;;12.70;99.90;;;11.29;83.42;100334.59;2567596;30;139482;-40
2021/10/30 00:10:13;;;;;;;9.68;5.32;;;12.70;99.90;;;11.25;82.52;100323.28;2567420;30;137390;-40
2021/10/30 00:12:41;;;;;;;8.07;5.28;;;12.70;99.90;;;11.28;82.49;100331.00;2569084;30;137361;-39
2021/10/30 00:15:10;;;;;;;;;;;12.70;99.90;;;11.24;81.89;100324.34;2569514;30;137082;-39
2021/10/30 00:17:38;;;;;;;9.85;5.40;;;12.70;99.90;;;11.29;82.40;100324.50;2566132;30;139319;-39
2021/10/30 00:20:09;;;;;;;9.52;4.93;;;12.70;99.90;;;11.25;82.17;100322.44;2568527;30;136613;-39
2021/10/30 00:22:37;;;;;;;8.18;5.10;;;12.70;99.90;;;11.23;82.36;100325.41;2567174;30;138557;-40
2021/10/30 00:25:06;;;;;;;8.57;5.28;;;12.60;99.90;;;11.18;82.61;100322.53;2568771;30;136990;-40
2021/10/30 00:27:33;;;;;;;9.00;5.57;;;12.60;99.90;;;11.08;81.73;100312.16;2567507;30;139213;-39
2021/10/30 00:30:10;;;;;;;9.82;5.22;;;12.50;99.90;;;11.03;82.16;100312.81;2567564;30;136598;-39
2021/10/30 00:32:37;;;;;;;9.25;5.43;;;12.50;99.90;;;10.96;82.09;100301.16;2568687;30;137019;-40
2021/10/30 00:35:05;;;;;;;9.23;5.43;;;12.40;99.90;;;10.91;82.54;100303.75;2566161;30;136948;-39
2021/10/30 00:37:33;;;;;;;9.18;5.13;;;12.40;99.90;;;10.91;81.99;100303.75;2567978;30;137873;-39
2021/10/30 00:40:03;;;;;;;10.40;5.13;;;12.30;99.90;;;10.89;82.24;100311.31;2568568;30;137051;-40
2021/10/30 00:42:31;;;;;;;9.70;5.15;;;12.30;99.90;;;10.92;81.71;100299.94;2566402;30;138497;-39
2021/10/30 00:44:58;;;;;;;9.68;5.18;;;12.30;99.90;;;10.91;81.61;100303.75;2568695;30;137199;-39
2021/10/30 00:47:26;;;;;;;8.73;4.53;;;12.40;99.90;;;11.00;81.23;100301.53;2567276;30;137032;-39
2021/10/30 00:49:53;;;;;;;;;;;12.40;99.90;;;11.04;80.63;100283.66;2566119;30;139400;-39
2021/10/30 00:52:22;;;;;;;10.05;5.00;;;12.40;99.90;;;11.03;79.78;100274.63;2568382;30;138501;-39
2021/10/30 00:54:57;;;;;;;8.10;5.13;;;12.40;99.90;;;11.01;80.65;100286.84;2567844;30;136697;-39
2021/10/30 00:57:28;;;;;;;8.57;4.55;;;12.40;99.90;;;10.97;81.37;100291.91;2567635;30;139276;-39
2021/10/30 00:59:56;;;;;;;9.77;5.70;;;12.40;99.90;;;10.94;80.90;100285.00;2565999;30;136493;-39
2021/10/30 01:02:24;;;;;;;9.68;5.18;;;12.40;99.90;;;10.98;81.20;100290.00;2565108;30;139242;-40
2021/10/30 01:04:51;;;;;;;9.77;4.90;;;12.40;99.90;;;10.92;81.35;100284.41;2568230;30;136963;-40
2021/10/30 01:07:19;;;;;;;9.73;4.93;;;12.30;99.90;;;11.00;80.88;100274.22;2568437;30;137369;-39
2021/10/30 01:09:52;;;;;;;7.43;4.57;;;12.40;99.90;;;10.89;81.01;100273.94;2568550;30;136684;-39
2021/10/30 01:12:19;;;;;;;8.02;4.75;;;12.30;99.90;;;10.90;81.27;100274.78;2569302;30;137093;-39
2021/10/30 01:14:48;;;;;;;;;;;12.30;99.90;;;10.88;80.67;100271.47;2565371;30;136802;-40
2021/10/30 01:17:15;;;;;;;7.70;4.25;;;12.30;99.90;;;10.82;80.59;100267.72;2566979;30;139305;-39
2021/10/30 01:19:43;;;;;;;9.68;4.78;;;12.30;99.90;;;10.85;80.97;100266.44;2568807;30;137354;-39
2021/10/30 01:22:10;;;;;;;8.45;4.85;;;12.20;99.90;;;10.77;81.47;100262.13;2567970;30;138674;-40
2021/10/30 01:24:38;;;;;;;7.68;4.30;;;12.20;99.90;;;10.73;81.53;100263.63;2567036;30;137594;-39
2021/10/30 01:27:06;;;;;;;8.90;4.90;;;12.20;99.90;;;10.81;80.94;100260.59;2566230;30;137306;-39
2021/10/30 01:29:34;;;;;;;;;;;12.20;99.90;;;10.81;80.61;100254.31;2565328;30;138003;-40
2021/10/30 01:32:02;;;;;;;11.60;4.50;;;12.20;99.90;;;10.77;80.42;100256.69;2567860;30;138691;-39
2021/10/30 01:34:32;;;;;;;9.35;5.00;;;12.20;99.90;;;10.84;80.04;100262.03;2567272;30;138137;-39
2021/10/30 01:37:00;;;;;;;7.85;4.72;;;12.20;99.90;;;10.89;80.20;100256.75;2566991;30;137349;-39
2021/10/30 01:39:27;;;;;;;8.55;4.43;;;12.30;99.90;;;10.89;80.41;100246.66;2568891;30;137833;-40
2021/10/30 01:41:55;;;;;;;8.20;4.55;;;12.30;99.90;;;10.91;79.56;100239.06;2567721;30;137392;-39
2021/10/30 01:44:22;;;;;;;9.63;4.60;;;12.30;99.90;;;10.91;80.17;100243.69;2567103;30;136771;-39
2021/10/30 01:46:57;;;;;;;8.88;4.40;;;12.30;99.90;;;10.89;80.09;100238.47;2568140;30;138065;-39
2021/10/30 01:49:26;;;;;;;8.70;4.55;;;12.30;99.90;;;10.90;80.47;100225.66;2567545;30;136891;-39
2021/10/30 01:51:55;;;;;;;7.82;4.57;;;12.30;99.90;;;10.91;79.90;100222.69;2566791;30;137143;-39
2021/10/30 01:54:23;;;;;;;9.02;4.32;;;12.30;99.90;;;10.99;80.25;100207.06;2566621;30;138538;-39
2021/10/30 01:56:53;;;;;;;8.05;4.20;;;12.40;99.90;;;10.97;79.95;100203.72;2567830;30;138239;-39
2021/10/30 01:59:20;;;;;;;9.18;4.45;;;12.40;99.90;;;10.94;79.75;100215.94;2567536;30;136997;-39
2021/10/30 02:01:48;;;;;;;9.27;4.85;;;12.40;99.90;;;10.98;79.67;100208.13;2566474;30;139211;-39
2021/10/30 02:04:16;;;;;;;;;;;12.30;99.90;;;10.99;79.59;100193.41;2568818;30;137476;-39
2021/10/30 02:06:43;;;;;;;7.68;4.18;;;12.40;99.90;;;10.95;79.32;100187.59;2567555;30;136702;-39
2021/10/30 02:09:11;;;;;;;8.13;4.53;;;12.40;99.90;;;11.01;79.09;100175.75;2567737;30;137473;-39
2021/10/30 02:11:38;;;;;;;7.53;4.55;;;12.40;99.90;;;10.96;79.80;100170.16;2568314;30;137264;-39
2021/10/30 02:14:06;;;;;;;6.85;4.10;;;12.40;99.90;;;10.92;79.54;100160.75;2566989;30;137113;-39
2021/10/30 02:16:35;;;;;;;9.38;4.10;;;12.40;99.90;;;10.96;79.26;100164.69;2567217;30;139281;-39
2021/10/30 02:19:03;;;;;;;8.20;4.65;;;12.40;99.90;;;10.92;79.98;100168.94;2567015;30;137513;-39
2021/10/30 02:21:31;;;;;;;6.72;4.15;;;12.30;99.90;;;10.96;78.87;100172.88;2567332;30;138160;-39
2021/10/30 02:23:58;;;;;;;7.05;4.28;;;12.40;99.90;;;10.95;79.48;100168.50;2567182;30;136982;-39
2021/10/30 02:26:26;;;;;;;9.23;4.68;;;12.40;99.90;;;10.93;79.72;100170.63;2567113;30;138182;-39
2021/10/30 02:28:53;;;;;;;6.60;4.00;;;12.30;99.90;;;10.94;79.26;100169.56;2566605;30;137653;-39
2021/10/30 02:31:21;;;;;;;8.02;4.45;;;12.40;99.90;;;10.94;79.11;100162.19;2566846;30;137651;-40
2021/10/30 02:33:48;;;;;;;7.57;4.00;;;12.40;99.90;;;10.95;79.24;100160.31;2567495;30;138291;-39
2021/10/30 02:36:16;;;;;;;7.85;4.28;;;12.30;99.90;;;10.96;78.87;100156.50;2567924;30;137102;-40
2021/10/30 02:38:43;;;;;;;8.07;3.88;;;12.30;99.90;;;10.92;79.46;100147.13;2568455;30;136781;-40
2021/10/30 02:41:12;;;;;;;7.72;4.18;;;12.30;99.90;;;10.88;79.84;100140.47;2568016;30;138211;-40
2021/10/30 02:43:39;;;;;;;6.93;4.00;;;12.30;99.90;;;10.94;79.01;100134.88;2568140;30;136938;-39
2021/10/30 02:46:07;;;;;;;7.50;3.75;;;12.30;99.90;;;10.87;79.45;100133.31;2567908;30;137480;-40
2021/10/30 02:48:35;;;;;;;6.75;3.97;;;12.30;99.90;;;10.89;78.94;100129.31;2570089;30;138684;-38
2021/10/30 02:51:03;;;;;;;7.50;4.05;;;12.30;99.90;;;10.89;79.09;100125.75;2569377;30;139152;-38
2021/10/30 02:53:30;;;;;;;7.03;4.05;;;12.30;99.90;;;10.90;79.02;100122.78;2569076;30;136708;-38
2021/10/30 02:55:58;;;;;;;7.72;3.75;;;12.30;99.90;;;10.93;78.94;100125.03;2568862;30;137480;-38
2021/10/30 02:58:26;;;;;;;7.20;3.95;;;12.30;99.90;;;10.96;79.03;100120.19;2568418;30;137617;-38
2021/10/30 03:00:53;;;;;;;7.22;4.03;;;12.30;99.90;;;10.94;78.38;100114.97;2569266;30;138261;-38
2021/10/30 03:03:21;;;;;;;6.78;3.88;;;12.30;99.90;;;10.95;78.64;100119.38;2569524;30;137392;-38
2021/10/30 03:05:49;;;;;;;7.47;3.25;;;12.30;99.90;;;10.94;78.48;100113.06;2569023;30;139080;-38
2021/10/30 03:08:16;;;;;;;6.20;3.60;;;12.30;99.90;;;10.98;78.21;100107.13;2568288;30;136862;-38
2021/10/30 03:10:44;;;;;;;6.97;3.88;;;12.30;99.90;;;10.99;78.40;100103.34;2568294;30;138177;-38
2021/10/30 03:13:12;;;;;;;5.85;3.50;;;12.40;99.90;;;11.01;77.66;100102.03;2567770;30;137274;-38
2021/10/30 03:15:39;;;;;;;;;;;12.40;99.90;;;11.00;78.19;100105.00;2569493;30;138679;-38
2021/10/30 03:18:07;;;;;;;7.75;3.97;;;12.40;99.90;;;11.05;77.62;100095.06;2569604;30;137978;-38
2021/10/30 03:20:35;;;;;;;7.00;3.92;;;12.40;99.90;;;11.03;77.72;100091.72;2568307;30;137276;-38
2021/10/30 03:23:03;;;;;;;6.63;3.92;;;12.40;99.90;;;11.03;77.75;100099.09;2569200;30;136974;-38
2021/10/30 03:25:31;;;;;;;7.18;3.70;;;12.40;99.90;;;11.01;77.62;100098.50;2568603;30;139034;-38
2021/10/30 03:27:59;;;;;;;7.18;3.80;;;12.40;99.90;;;11.03;77.19;100099.91;2569566;30;137502;-38
2021/10/30 03:30:26;;;;;;;7.25;3.60;;;12.40;99.90;;;10.98;78.18;100088.03;2569237;30;139020;-38
2021/10/30 03:32:54;;;;;;;6.57;3.60;;;12.40;99.90;;;10.98;77.85;100099.78;2569098;30;137435;-38
2021/10/30 03:35:22;;;;;;;5.95;3.72;;;12.40;99.90;;;11.04;77.19;100101.56;2566575;30;139312;-38
2021/10/30 03:37:49;;;;;;;6.50;3.50;;;12.40;99.90;;;11.10;77.36;100099.81;2569767;30;137864;-38
2021/10/30 03:40:17;;;;;;;6.22;3.80;;;12.50;99.90;;;11.16;77.26;100098.88;2568012;30;138043;-38
2021/10/30 03:42:44;;;;;;;6.50;3.33;;;12.50;99.90;;;11.14;77.08;100101.00;2569243;30;138189;-38
2021/10/30 03:45:13;;;;;;;6.68;3.90;;;12.50;99.90;;;11.16;77.73;100096.16;2568483;30;138140;-38
2021/10/30 03:47:41;;;;;;;8.90;3.45;;;12.50;99.90;;;11.18;78.54;100102.19;2568850;30;137462;-41
2021/10/30 03:50:09;;;;;;;5.88;3.30;;;12.60;99.90;;;11.10;78.31;100102.56;2569709;30;137784;-40
2021/10/30 03:52:37;;;;;;;7.10;3.85;;;12.50;99.90;;;11.16;78.14;100104.34;2568561;30;138565;-41
2021/10/30 03:55:06;;;;;;;7.25;3.78;;;12.50;99.90;;;11.15;78.99;100104.59;2567373;30;137896;-38
2021/10/30 03:57:34;;;;;;;7.43;3.50;;;12.50;99.90;;;11.14;79.56;100102.91;2568943;30;137057;-38
2021/10/30 04:00:06;;;;;;;7.32;3.55;;;12.50;99.90;;;11.13;80.88;100103.97;2569601;30;137460;-38
2021/10/30 04:02:40;;;;;;;6.57;3.50;;;12.50;99.90;;;11.05;82.98;100114.16;2569631;30;136701;-38
2021/10/30 04:05:09;;;;;;;8.70;4.00;;;12.40;99.90;;;10.90;83.95;100100.13;2567401;30;138282;-38
2021/10/30 04:07:37;;;;;;;6.70;4.15;;;12.40;99.90;;;10.86;85.98;100104.34;2569656;30;137120;-38
2021/10/30 04:10:06;;;;;;;8.35;4.28;;;12.30;99.90;;;10.75;87.36;100112.28;2569059;30;137328;-38
2021/10/30 04:12:33;;;;;;;7.68;4.13;;;12.20;99.90;;;10.64;88.94;100108.44;2566111;30;138960;-38
2021/10/30 04:15:04;;;;;;;7.20;4.28;;;12.10;99.90;;;10.54;89.61;100110.03;2569089;30;137204;-38
2021/10/30 04:17:31;;;;;;;7.65;4.70;;;12.00;99.90;;;10.51;91.64;100103.19;2568930;30;136933;-38
2021/10/30 04:19:59;;;;;;;7.68;4.60;;;12.00;99.90;;;10.42;93.00;100107.25;2569455;30;138563;-38
2021/10/30 04:22:26;;;;;;;7.40;4.53;;;11.90;99.90;;;10.32;93.32;100105.88;2569268;30;138406;-38
2021/10/30 04:24:54;;;;;;;6.97;4.30;;;11.80;99.90;;;10.28;93.90;100112.84;2568954;30;136994;-38
2021/10/30 04:27:22;;;;;;;7.72;4.88;;;11.80;99.90;;;10.25;94.71;100117.91;2571197;30;138239;-38
2021/10/30 04:29:49;;;;;;;8.23;4.80;;;11.70;99.90;;;10.10;95.93;100108.25;2569641;30;138940;-38
2021/10/30 04:32:17;;;;;;;10.48;4.97;;;11.60;99.90;;;10.03;96.80;100107.47;2568332;30;136773;-38
2021/10/30 04:34:50;;;;;;;;;;;11.50;99.90;;;9.99;97.93;100111.72;2569939;30;138548;-37
2021/10/30 04:37:18;;;;;;;11.43;5.45;;;11.50;99.90;;;9.90;98.20;100103.00;2572007;30;137137;-38
2021/10/30 04:39:49;;;;;;;;;;;11.40;99.90;;;9.90;98.44;100109.28;2570191;30;137936;-38
2021/10/30 04:42:19;;;;;;;10.43;5.35;;;11.40;99.90;;;9.81;99.00;100088.81;2569837;30;138185;-40
2021/10/30 04:44:47;;;;;;;9.55;5.05;;;11.30;99.90;;;9.81;99.70;100088.81;2570563;30;138232;-40
2021/10/30 04:47:17;;;;;;;9.75;5.47;;;11.30;99.90;;;9.77;99.95;100076.72;2569268;30;136942;-40
2021/10/30 04:49:47;;;;;;;7.80;4.70;;;11.30;99.90;;;9.74;100.00;100078.03;2570788;30;138211;-40
2021/10/30 04:52:15;;;;;;;8.88;5.45;;;11.20;99.90;;;9.73;100.00;100070.06;2570778;30;138243;-40
2021/10/30 04:54:42;;;;;;;;;;;11.20;99.90;;;9.69;100.00;100063.41;2569106;30;139418;-40
2021/10/30 04:57:10;;;;;;;9.77;5.50;;;11.20;99.90;;;9.70;100.00;100048.72;2569474;30;137177;-40
2021/10/30 04:59:37;;;;;;;10.23;5.72;;;11.20;99.90;;;9.68;100.00;100064.47;2570307;30;137332;-40
2021/10/30 05:02:05;;;;;;;9.15;5.63;;;11.10;99.90;;;9.67;100.00;100052.72;2569459;30;137520;-40
2021/10/30 05:04:33;;;;;;;;;;;11.10;99.90;;;9.69;100.00;100058.81;2568544;30;138794;-40
2021/10/30 05:07:01;;;;;;;9.88;5.88;;;11.10;99.90;;;9.62;100.00;100041.66;2569870;30;137200;-40
2021/10/30 05:09:30;;;;;;;;;;;11.10;99.90;;;9.62;100.00;100039.78;2569912;30;138540;-40
2021/10/30 05:11:57;;;;;;;9.65;5.40;;;11.10;99.90;;;9.62;100.00;100028.06;2570341;30;138100;-40
2021/10/30 05:14:26;;;;;;;10.65;5.47;;;11.10;99.90;;;9.61;100.00;100037.28;2565260;30;138610;-40
2021/10/30 05:16:53;;;;;;;10.15;5.68;;;11.10;99.90;;;9.70;100.00;100030.50;2568848;30;136834;-40
2021/10/30 05:19:21;;;;;;;10.13;5.72;;;11.10;99.90;;;9.70;100.00;100026.94;2568302;30;138268;-40
2021/10/30 05:21:48;;;;;;;9.48;5.43;;;11.10;99.90;;;9.72;100.00;100025.66;2568339;30;137884;-40
2021/10/30 05:24:16;;;;;;;9.30;5.35;;;11.20;99.90;;;9.69;100.00;100023.41;2568941;30;138450;-40
2021/10/30 05:26:44;;;;;;;8.95;5.47;;;11.10;99.90;;;9.61;100.00;100019.06;2569152;30;138585;-38
2021/10/30 05:29:11;;;;;;;9.30;5.25;;;11.10;99.90;;;9.66;100.00;100017.56;2570069;30;139119;-38
2021/10/30 05:31:39;;;;;;;10.35;5.10;;;11.10;99.90;;;9.61;100.00;100010.91;2569953;30;137322;-43
2021/10/30 05:34:06;;;;;;;11.52;5.85;;;11.10;99.90;;;9.59;100.00;100013.00;2570539;30;138291;-38
2021/10/30 05:37:07;;;;;;;9.88;5.55;;;11.10;99.90;;;9.61;100.00;100013.63;2567049;30;136834;-40
2021/10/30 05:39:42;;;;;;;10.98;5.95;;;11.10;99.90;;;9.62;100.00;100004.41;2568477;30;139380;-41
2021/10/30 05:42:11;;;;;;;9.88;5.88;;;11.10;99.90;;;9.66;100.00;100001.22;2568118;30;137667;-40
2021/10/30 05:44:39;;;;;;;9.05;5.32;;;11.10;99.90;;;9.60;100.00;99984.72;2568758;30;138128;-40
2021/10/30 05:47:08;;;;;;;;;;;11.10;99.90;;;9.64;100.00;99983.22;2569959;30;138224;-40
2021/10/30 05:49:40;;;;;;;8.23;4.80;;;11.10;99.90;;;9.64;100.00;99985.09;2568737;30;138118;-40
2021/10/30 05:52:09;;;;;;;8.80;5.20;;;11.10;99.90;;;9.69;100.00;99981.69;2568900;30;136938;-40
2021/10/30 05:54:38;;;;;;;7.75;4.97;;;11.10;99.90;;;9.64;100.00;99991.38;2568942;30;138288;-40
2021/10/30 05:57:13;;;;;;;9.65;5.53;;;11.10;99.90;;;9.62;100.00;99985.31;2569775;30;136867;-40
2021/10/30 05:59:40;;;;;;;9.90;5.10;;;11.10;99.90;;;9.64;100.00;99976.91;2569356;30;138056;-38
2021/10/30 06:02:12;;;;;;;9.27;5.45;;;11.10;99.90;;;9.69;100.00;99978.97;2570441;30;136885;-40
2021/10/30 06:04:41;;;;;;;8.27;5.28;;;11.10;99.90;;;9.63;100.00;99970.66;2569261;30;137046;-41
2021/10/30 06:07:09;;;;;;;10.00;5.57;;;11.10;99.90;;;9.62;100.00;99974.44;2568414;30;137972;-40
2021/10/30 06:09:37;;;;;;;9.55;5.07;;;11.10;99.90;;;9.64;100.00;99975.03;2568401;30;138344;-41
2021/10/30 06:12:05;;;;;;;;;;;11.10;99.90;;;9.64;100.00;99976.91;2568669;30;136780;-40
2021/10/30 06:14:33;;;;;;;10.10;5.15;;;11.10;99.90;;;9.64;100.00;99975.03;2568103;30;138144;-40
2021/10/30 06:17:00;;;;;;;10.00;5.18;;;11.10;99.90;;;9.64;100.00;99975.03;2569108;30;136795;-40
2021/10/30 06:19:28;;;;;;;9.48;5.53;;;11.10;99.90;;;9.69;100.00;99976.25;2568034;30;137398;-40
2021/10/30 06:21:56;;;;;;;8.23;5.03;;;11.10;99.90;;;9.68;100.00;99971.84;2569071;30;138657;-40
2021/10/30 06:24:23;;;;;;;7.90;5.05;;;11.10;99.90;;;9.68;100.00;99971.84;2566653;30;138728;-40
2021/10/30 06:26:51;;;;;;;9.73;5.10;;;11.10;99.90;;;9.66;100.00;99972.06;2571850;30;137464;-40
2021/10/30 06:29:18;;;;;;;8.75;4.95;;;11.10;99.90;;;9.66;100.00;99969.34;2566760;30;139258;-40
2021/10/30 06:31:46;;;;;;;9.60;5.50;;;11.10;99.90;;;9.70;100.00;99972.47;2568123;30;138533;-40
2021/10/30 06:34:14;;;;;;;6.97;4.60;;;11.10;99.90;;;9.73;100.00;99972.84;2569103;30;138471;-40
2021/10/30 06:36:42;;;;;;;9.30;5.45;;;11.20;99.90;;;9.72;100.00;99981.22;2568368;30;138080;-40
2021/10/30 06:39:09;;;;;;;9.80;5.40;;;11.10;99.90;;;9.75;100.00;99973.44;2569050;30;138216;-40
2021/10/30 06:41:46;;;;;;;8.15;4.95;;;11.20;99.90;;;9.74;100.00;99974.50;2572010;30;137558;-41
2021/10/30 06:44:16;;;;;;;9.52;4.85;;;11.20;99.90;;;9.73;100.00;99974.72;2568358;30;137304;-40
2021/10/30 06:46:44;;;;;;;7.35;4.70;;;11.20;99.90;;;9.83;100.00;99974.19;2570948;30;137431;-40
2021/10/30 06:49:14;;;;;;;9.25;4.90;;;11.20;99.90;;;9.79;100.00;99977.38;2565952;30;138887;-40
2021/10/30 06:51:42;;;;;;;8.18;4.95;;;11.20;99.90;;;9.82;100.00;99980.69;2568835;30;138237;-40
2021/10/30 06:54:10;;;;;;;9.88;4.82;;;11.20;99.90;;;9.75;100.00;99970.72;2568027;30;138158;-40
2021/10/30 06:56:40;;;;;;;;;;;11.20;99.90;;;9.78;100.00;99975.72;2568083;30;138314;-41
2021/10/30 06:59:08;;;;;;;7.20;4.40;;;11.20;99.90;;;9.82;100.00;99964.34;2570306;30;137264;-40
2021/10/30 07:01:36;;;;;;;7.38;4.45;;;11.20;99.90;;;9.81;100.00;99968.97;2567607;30;136813;-41
2021/10/30 07:04:06;;;;;;;10.55;4.68;;;11.30;99.90;;;9.84;100.00;99959.50;2567622;30;137713;-41
2021/10/30 07:06:34;;;;;;;9.32;4.90;;;11.30;99.90;;;9.87;100.00;99968.06;2567497;30;137579;-40
2021/10/30 07:09:01;;;;;;;;;;;11.30;99.90;;;9.86;100.00;99965.56;2569491;30;138410;-38
2021/10/30 07:11:29;;;;;;;7.97;4.57;;;11.30;99.90;;;9.87;100.00;99967.22;2569283;30;137075;-40
2021/10/30 07:13:57;;;;;;;7.45;5.03;;;11.30;99.90;;;9.79;100.00;99971.94;2566362;30;138417;-40
2021/10/30 07:16:24;;;;;;;7.65;4.80;;;11.30;99.90;;;9.83;100.00;99966.00;2569201;30;137850;-40
2021/10/30 07:18:52;;;;;;;;;;;11.30;99.90;;;9.82;100.00;99967.94;2569458;30;138512;-40
2021/10/30 07:21:19;;;;;;;7.30;4.57;;;11.30;99.90;;;9.78;100.00;99970.25;2567476;30;137046;-41
2021/10/30 07:23:47;;;;;;;7.20;4.55;;;11.20;99.90;;;9.77;100.00;99962.31;2567852;30;137407;-40
2021/10/30 07:26:15;;;;;;;8.18;4.72;;;11.20;99.90;;;9.84;100.00;99967.69;2568793;30;137347;-40
2021/10/30 07:28:42;;;;;;;9.10;4.72;;;11.30;99.90;;;9.82;100.00;99967.06;2566609;30;138334;-41
2021/10/30 07:31:10;;;;;;;6.72;4.57;;;11.30;99.90;;;9.83;100.00;99964.13;2569051;30;137509;-40
2021/10/30 07:33:37;;;;;;;10.18;5.35;;;11.30;99.90;;;9.80;100.00;99956.41;2568618;30;138470;-40
2021/10/30 07:36:05;;;;;;;8.40;4.95;;;11.30;99.90;;;9.79;100.00;99954.72;2569122;30;136707;-40
2021/10/30 07:38:33;;;;;;;7.68;4.55;;;11.20;99.90;;;9.79;100.00;99954.72;2569086;30;138618;-40
2021/10/30 07:41:00;;;;;;;7.43;5.18;;;11.20;99.90;;;9.80;100.00;99956.41;2568807;30;136780;-40
2021/10/30 07:43:28;;;;;;;9.70;4.90;;;11.20;99.90;;;9.87;100.00;99954.44;2568231;30;138120;-41
2021/10/30 07:45:56;;;;;;;7.90;4.93;;;11.30;99.90;;;9.85;100.00;99948.41;2568706;30;137472;-40
2021/10/30 07:48:24;;;;;;;;;;;11.30;99.90;;;9.85;100.00;99947.56;2568381;30;138426;-40
2021/10/30 07:50:51;;;;;;;9.55;5.18;;;11.30;99.90;;;9.82;100.00;99943.41;2566485;30;136977;-40
2021/10/30 07:53:19;;;;;;;9.10;5.20;;;11.30;99.90;;;9.81;100.00;99951.78;2569437;30;138375;-41
2021/10/30 07:55:48;;;;;;;8.80;5.32;;;11.30;99.90;;;9.79;100.00;99950.13;2568563;30;137659;-40
2021/10/30 07:58:16;;;;;;;8.95;5.00;;;11.20;99.90;;;9.83;100.00;99949.66;2567436;30;138908;-41
2021/10/30 08:00:43;;;;;;;8.05;5.10;;;11.30;99.90;;;9.82;100.00;99954.31;2570016;30;137209;-40
2021/10/30 08:03:11;;;;;;;9.30;4.85;;;11.20;99.90;;;9.87;100.00;99956.31;2567714;30;137100;-41
2021/10/30 08:05:39;;;;;;;8.55;4.97;;;11.30;99.90;;;9.83;100.00;99961.41;2568965;30;136897;-40
2021/10/30 08:08:06;;;;;;;8.95;5.40;;;11.30;99.90;;;9.87;100.00;99959.03;2569411;30;137437;-40
2021/10/30 08:10:34;;;;;;;10.77;5.75;;;11.30;99.90;;;9.83;100.00;99961.41;2569228;30;137950;-40
2021/10/30 08:13:02;;;;;;;7.97;4.85;;;11.30;99.90;;;9.87;100.00;99964.50;2568387;30;138094;-40
2021/10/30 08:15:29;;;;;;;9.57;5.32;;;11.30;99.90;;;9.88;100.00;99957.97;2569075;30;138555;-41
2021/10/30 08:17:57;;;;;;;8.88;4.97;;;11.30;99.90;;;9.95;100.00;99958.75;2568626;30;138963;-40
2021/10/30 08:20:24;;;;;;;9.73;5.63;;;11.30;99.90;;;9.98;99.65;99952.00;2570722;30;137727;-38
2021/10/30 08:22:52;;;;;;;9.18;5.47;;;11.40;99.90;;;10.01;99.80;99946.09;2569317;30;138438;-38
2021/10/30 08:25:20;;;;;;;8.63;5.45;;;11.40;99.90;;;10.03;100.00;99946.69;2568812;30;137247;-41
2021/10/30 08:27:47;;;;;;;8.95;5.15;;;11.40;99.90;;;10.06;100.00;99949.78;2569998;30;139317;-40
2021/10/30 08:30:15;;;;;;;8.45;5.35;;;11.50;99.90;;;10.06;99.24;99949.78;2569507;30;137525;-40
2021/10/30 08:32:42;;;;;;;8.07;4.68;;;11.50;99.90;;;10.09;100.00;99951.22;2569609;30;139786;-40
2021/10/30 08:35:10;;;;;;;7.78;4.78;;;11.50;99.90;;;10.16;99.85;99953.84;2568504;30;136688;-41
2021/10/30 08:37:39;;;;;;;10.70;5.57;;;11.50;99.90;;;10.12;100.00;99945.31;2567896;30;139128;-40
2021/10/30 08:40:12;;;;;;;9.20;5.25;;;11.50;99.90;;;10.12;100.00;99950.75;2569064;30;137417;-41
2021/10/30 08:43:00;;;;;;;8.85;4.93;;;11.50;99.90;;;10.21;100.00;99952.09;2569230;30;138029;-41
2021/10/30 08:45:32;;;;;;;8.40;5.18;;;11.60;99.90;;;10.26;100.00;99945.09;2568206;30;137055;-40
2021/10/30 08:48:05;;;;;;;8.63;5.40;;;11.60;99.90;;;10.26;99.63;99948.69;2568726;30;137283;-41
2021/10/30 08:50:33;;;;;;;8.73;4.90;;;11.70;99.90;;;10.28;99.29;99938.38;2572729;30;137855;-39
2021/10/30 08:53:02;;;;;;;9.25;5.55;;;11.70;99.90;;;10.28;99.53;99938.38;2567561;30;138288;-39
2021/10/30 08:55:30;;;;;;;7.85;4.70;;;11.70;99.90;;;10.33;100.00;99933.06;2568307;30;137774;-39
2021/10/30 08:58:11;;;;;;;10.85;5.55;;;11.70;99.90;;;10.34;100.00;99936.59;2568715;30;138157;-39
2021/10/30 09:00:49;;;;;;;9.15;5.28;;;11.70;99.90;;;10.39;100.00;99931.28;2568235;30;137440;-38
2021/10/30 09:03:20;;;;;;;12.65;5.72;;;11.70;99.90;;;10.36;99.94;99926.31;2567834;30;138221;-39
2021/10/30 09:05:52;;;;;;;10.00;5.00;;;11.70;99.90;;;10.45;100.00;99924.09;2567435;30;137148;-38
2021/10/30 09:08:23;;;;;;;9.32;5.20;;;11.80;99.90;;;10.40;100.00;99923.94;2568436;30;137342;-39
2021/10/30 09:10:57;;;;;;;9.57;5.30;;;11.80;99.90;;;10.42;100.00;99925.41;2568990;30;136744;-39
2021/10/30 09:13:30;;;;;;;7.63;4.97;;;11.80;99.90;;;10.42;100.00;99930.84;2565697;30;137872;-39
2021/10/30 09:16:01;;;;;;;8.27;5.25;;;11.80;99.90;;;10.39;100.00;99925.00;2567692;30;139149;-39
2021/10/30 09:18:39;;;;;;;7.45;4.95;;;11.80;99.90;;;10.39;100.00;99923.13;2567618;30;138282;-39
2021/10/30 09:21:18;;;;;;;8.50;5.22;;;11.80;99.90;;;10.35;100.00;99921.94;2568320;30;138474;-39
2021/10/30 09:23:51;;;;;;;;;;;11.70;99.90;;;10.39;100.00;99927.72;2569234;30;139183;-38
2021/10/30 09:26:24;;;;;;;7.15;4.85;;;11.70;99.90;;;10.40;100.00;99916.63;2566946;30;137320;-39
2021/10/30 09:29:09;;;;;;;8.00;4.95;;;11.80;99.90;;;10.40;100.00;99919.34;2567678;30;138439;-39
2021/10/30 09:31:37;;;;;;;9.65;4.93;;;11.80;99.90;;;10.48;100.00;99919.00;2567606;30;136884;-39
2021/10/30 09:34:08;;;;;;;8.13;5.05;;;11.80;99.90;;;10.46;100.00;99923.03;2566186;30;137734;-39
2021/10/30 09:36:43;;;;;;;7.60;5.07;;;11.90;99.90;;;10.45;100.00;99924.94;2568716;30;137893;-39
2021/10/30 09:39:19;;;;;;;10.00;4.82;;;11.80;99.90;;;10.46;100.00;99921.13;2566039;30;136803;-39
2021/10/30 09:41:52;;;;;;;9.00;5.03;;;11.80;99.90;;;10.50;100.00;99927.78;2567085;30;137677;-39
2021/10/30 09:44:26;;;;;;;9.23;5.18;;;11.90;99.90;;;10.52;100.00;99934.91;2567246;30;137478;-39
2021/10/30 09:46:58;;;;;;;8.48;5.10;;;11.90;99.90;;;10.54;100.00;99921.84;2568389;30;136942;-39
2021/10/30 09:49:36;;;;;;;8.70;5.18;;;11.90;99.90;;;10.59;100.00;99914.66;2568389;30;138197;-39
2021/10/30 09:52:06;;;;;;;8.13;5.07;;;11.90;99.90;;;10.64;100.00;99919.41;2568209;30;136843;-39
2021/10/30 09:54:42;;;;;;;9.52;5.40;;;12.00;99.90;;;10.64;100.00;99914.75;2567886;30;138334;-39
2021/10/30 09:57:24;;;;;;;8.93;5.68;;;12.00;99.90;;;10.65;100.00;99916.41;2566668;30;138509;-39
2021/10/30 09:59:53;;;;;;;8.88;6.05;;;12.00;99.90;;;10.69;100.00;99905.03;2568645;30;139399;-39
2021/10/30 10:02:25;;;;;;;9.65;5.88;;;12.10;99.90;;;10.77;100.00;99915.63;2568028;30;137022;-39
2021/10/30 10:04:59;;;;;;;8.10;4.97;;;12.10;99.90;;;10.82;100.00;99903.97;2567464;30;138476;-39
2021/10/30 10:07:33;;;;;;;9.98;5.32;;;12.20;99.90;;;10.77;100.00;99900.06;2566639;30;137154;-39
2021/10/30 10:10:01;;;;;;;8.15;5.03;;;12.10;99.90;;;10.74;100.00;99914.19;2567801;30;138338;-38
2021/10/30 10:12:32;;;;;;;9.80;5.18;;;12.10;99.90;;;10.68;100.00;99900.66;2568220;30;137753;-39
2021/10/30 10:15:02;;;;;;;10.43;5.53;;;12.10;99.90;;;10.74;100.00;99905.16;2567113;30;138506;-39
2021/10/30 10:17:32;;;;;;;9.27;5.10;;;12.10;99.90;;;10.77;100.00;99910.97;2566550;30;138244;-39